Time;durP1;ratioP1;P1;durP2;ratioP2;P2;SDS_P1;SDS_P2;PMS_P1;PMS_P2;Temp;Humidity;BMP_temperature;BMP_pressure;BME280_temperature;BME280_humidity;BME280_pressure;Samples;Min_cycle;Max_cycle;Signal;HPM_P1;HPM_P2
2021/09/04 00:01:57;;;;;;;9.27;8.57;;;;;;;10.90;100.00;98198.69;5001296;28;20208;-69
2021/09/04 00:04:25;;;;;;;8.57;7.87;;;;;;;10.84;100.00;98202.81;5001910;28;20208;-69
2021/09/04 00:06:55;;;;;;;9.53;8.83;;;;;;;10.79;100.00;98202.44;4954626;28;1288942;-68
2021/09/04 00:09:23;;;;;;;9.50;8.70;;;;;;;10.74;100.00;98197.66;4995634;28;20244;-69
2021/09/04 00:11:51;;;;;;;10.53;8.37;;;;;;;10.69;100.00;98200.75;5005652;28;20499;-69
2021/09/04 00:14:19;;;;;;;9.60;8.87;;;;;;;10.68;100.00;98203.59;5004849;28;20213;-69
2021/09/04 00:16:47;;;;;;;9.70;8.80;;;;;;;10.67;100.00;98193.97;5004354;28;20232;-69
2021/09/04 00:19:15;;;;;;;9.80;8.83;;;;;;;10.66;100.00;98194.97;5005227;28;20204;-69
2021/09/04 00:21:43;;;;;;;9.93;8.40;;;;;;;10.68;100.00;98187.69;5006678;28;20211;-69
2021/09/04 00:24:13;;;;;;;9.43;8.50;;;;;;;10.61;100.00;98190.13;5002283;28;20606;-69
2021/09/04 00:26:41;;;;;;;8.83;8.10;;;;;;;10.60;100.00;98190.28;5003547;28;20232;-70
2021/09/04 00:29:09;;;;;;;10.47;9.57;;;;;;;10.55;100.00;98190.78;5003616;28;20219;-69
2021/09/04 00:31:37;;;;;;;9.63;8.83;;;;;;;10.49;100.00;98188.75;5007982;28;20320;-69
2021/09/04 00:34:05;;;;;;;9.23;8.43;;;;;;;10.56;100.00;98184.47;5005605;28;20206;-70
2021/09/04 00:36:33;;;;;;;9.17;8.47;;;;;;;10.49;100.00;98178.97;5008772;28;20262;-70
2021/09/04 00:39:01;;;;;;;8.53;7.73;;;;;;;10.50;100.00;98179.81;5004958;28;20617;-69
2021/09/04 00:41:34;;;;;;;7.87;7.33;;;;;;;10.41;100.00;98177.13;5005166;28;20221;-69
2021/09/04 00:44:02;;;;;;;8.60;8.00;;;;;;;10.43;100.00;98179.63;4999480;28;20204;-69
2021/09/04 00:46:30;;;;;;;10.00;9.10;;;;;;;10.36;100.00;98179.38;5000021;28;20262;-71
2021/09/04 00:48:59;;;;;;;9.10;8.30;;;;;;;10.39;100.00;98175.59;5006459;28;20205;-69
2021/09/04 00:51:27;;;;;;;11.70;8.53;;;;;;;10.40;100.00;98175.47;5008342;28;20311;-69
2021/09/04 00:53:56;;;;;;;10.00;8.37;;;;;;;10.42;100.00;98176.16;5007161;28;20213;-70
2021/09/04 00:56:24;;;;;;;8.43;7.77;;;;;;;10.46;100.00;98181.13;5006504;28;20233;-68
2021/09/04 00:58:53;;;;;;;8.93;8.33;;;;;;;10.40;100.00;98174.66;5004888;28;20639;-69
2021/09/04 01:01:21;;;;;;;9.43;8.67;;;;;;;10.40;100.00;98180.75;5004256;28;20209;-69
2021/09/04 01:03:50;;;;;;;8.20;7.50;;;;;;;10.38;100.00;98180.06;5002352;28;20232;-69
2021/09/04 01:06:18;;;;;;;8.30;7.77;;;;;;;10.35;100.00;98175.06;5006720;28;20237;-69
2021/09/04 01:08:46;;;;;;;9.57;8.77;;;;;;;10.35;100.00;98180.38;5006504;28;20252;-69
2021/09/04 01:11:14;;;;;;;9.03;8.33;;;;;;;10.24;100.00;98178.00;4997333;28;20210;-69
2021/09/04 01:13:44;;;;;;;9.80;9.03;;;;;;;10.19;100.00;98181.13;5006464;28;20279;-69
2021/09/04 01:16:14;;;;;;;9.43;8.70;;;;;;;10.17;100.00;98177.78;5005756;28;20240;-72
2021/09/04 01:18:42;;;;;;;9.00;8.20;;;;;;;10.18;100.00;98179.44;5005252;28;20260;-69
2021/09/04 01:21:11;;;;;;;8.70;8.00;;;;;;;10.16;100.00;98172.66;5002952;28;20225;-68
2021/09/04 01:23:39;;;;;;;9.40;8.63;;;;;;;10.16;100.00;98170.03;5007053;28;20204;-69
2021/09/04 01:26:09;;;;;;;10.17;8.50;;;;;;;10.18;100.00;98168.84;5008675;28;20244;-70
2021/09/04 01:28:38;;;;;;;8.87;7.97;;;;;;;10.12;100.00;98173.00;5005965;28;20743;-69
2021/09/04 01:31:07;;;;;;;8.17;7.57;;;;;;;10.10;100.00;98176.75;5000915;28;20241;-68
2021/09/04 01:33:42;;;;;;;8.77;8.10;;;;;;;10.08;100.00;98169.00;5008723;28;20708;-69
2021/09/04 01:36:11;;;;;;;9.27;8.47;;;;;;;10.08;100.00;98174.28;5007192;28;20239;-68
2021/09/04 01:38:39;;;;;;;8.83;8.03;;;;;;;9.94;100.00;98173.03;5002633;28;20612;-69
2021/09/04 01:41:09;;;;;;;9.57;8.87;;;;;;;9.91;100.00;98168.06;5002644;28;20735;-69
2021/09/04 01:43:37;;;;;;;9.13;8.33;;;;;;;9.91;100.00;98176.00;5003361;28;20197;-68
2021/09/04 01:46:05;;;;;;;9.47;8.67;;;;;;;9.84;100.00;98165.19;5007426;28;20327;-69
2021/09/04 01:48:33;;;;;;;9.13;8.33;;;;;;;9.91;100.00;98168.06;5003959;28;20623;-69
2021/09/04 01:51:01;;;;;;;8.43;7.83;;;;;;;9.83;100.00;98167.97;5002387;28;20216;-69
2021/09/04 01:53:30;;;;;;;9.50;8.70;;;;;;;9.76;100.00;98165.13;5003333;28;20212;-69
2021/09/04 01:56:00;;;;;;;8.47;7.77;;;;;;;9.81;100.00;98160.22;5011379;28;20786;-68
2021/09/04 01:58:29;;;;;;;9.27;8.53;;;;;;;9.82;100.00;98169.81;5007449;28;20750;-69
2021/09/04 02:00:58;;;;;;;9.37;8.47;;;;;;;9.74;100.00;98153.03;5006069;28;20292;-68
2021/09/04 02:03:26;;;;;;;8.30;7.60;;;;;;;9.70;100.00;98149.88;5007813;28;20315;-69
2021/09/04 02:05:55;;;;;;;8.57;7.77;;;;;;;9.61;100.00;98143.69;5000963;28;20287;-69
2021/09/04 02:08:23;;;;;;;8.77;8.03;;;;;;;9.65;100.00;98144.19;5005686;28;20871;-69
2021/09/04 02:10:51;;;;;;;9.23;8.53;;;;;;;9.61;100.00;98143.69;5005647;28;20978;-69
2021/09/04 02:13:19;;;;;;;8.87;8.17;;;;;;;9.69;100.00;98142.94;5002983;28;20212;-69
2021/09/04 02:15:48;;;;;;;9.50;8.80;;;;;;;9.79;100.00;98140.16;5002903;28;20239;-68
2021/09/04 02:18:16;;;;;;;8.33;7.73;;;;;;;9.77;100.00;98144.78;5005414;28;20236;-69
2021/09/04 02:20:45;;;;;;;8.93;8.23;;;;;;;9.69;100.00;98146.41;5004753;28;20216;-69
2021/09/04 02:23:13;;;;;;;9.17;8.27;;;;;;;9.67;100.00;98145.72;5008693;28;20230;-69
2021/09/04 02:25:41;;;;;;;8.73;8.03;;;;;;;9.58;100.00;98144.00;5004033;28;20709;-70
2021/09/04 02:28:09;;;;;;;10.57;8.43;;;;;;;9.56;100.00;98144.16;5008945;28;20315;-69
2021/09/04 02:30:38;;;;;;;9.10;8.40;;;;;;;9.58;100.00;98140.50;5010083;28;20215;-70
2021/09/04 02:33:07;;;;;;;8.83;8.03;;;;;;;9.62;100.00;98144.50;5012097;28;20299;-69
2021/09/04 02:35:35;;;;;;;9.87;9.07;;;;;;;9.58;100.00;98135.22;5001314;28;20235;-69
2021/09/04 02:38:03;;;;;;;8.23;7.60;;;;;;;9.57;100.00;98145.00;5010345;28;20606;-70
2021/09/04 02:40:31;;;;;;;9.37;8.47;;;;;;;9.52;100.00;98137.50;5005702;28;20205;-69
2021/09/04 02:42:59;;;;;;;8.40;7.80;;;;;;;9.56;100.00;98136.22;4999818;28;20216;-68
2021/09/04 02:45:28;;;;;;;9.30;8.60;;;;;;;9.55;100.00;98137.19;5004228;28;20576;-69
2021/09/04 02:47:56;;;;;;;8.90;8.10;;;;;;;9.60;100.00;98143.84;4999247;28;20600;-69
2021/09/04 02:50:25;;;;;;;8.30;7.60;;;;;;;9.48;100.00;98141.44;5005186;28;20558;-69
2021/09/04 02:52:53;;;;;;;11.03;8.50;;;;;;;9.43;100.00;98135.78;5008319;28;20445;-69
2021/09/04 02:55:21;;;;;;;8.67;7.97;;;;;;;9.45;100.00;98141.75;5008226;28;20204;-69
2021/09/04 02:57:49;;;;;;;8.27;7.63;;;;;;;9.43;100.00;98138.44;5009637;28;20224;-69
2021/09/04 03:00:18;;;;;;;9.00;8.30;;;;;;;9.42;100.00;98136.78;5006621;28;20584;-68
2021/09/04 03:02:48;;;;;;;8.27;7.57;;;;;;;9.44;100.00;98137.44;5001518;28;20217;-69
2021/09/04 03:05:18;;;;;;;9.00;8.20;;;;;;;9.34;100.00;98128.78;5004095;28;20232;-68
2021/09/04 03:07:47;;;;;;;8.40;7.70;;;;;;;9.41;100.00;98135.09;5005693;28;20248;-68
2021/09/04 03:10:15;;;;;;;9.23;8.33;;;;;;;9.32;100.00;98138.69;5000703;28;20222;-69
2021/09/04 03:12:43;;;;;;;8.63;7.67;;;;;;;9.26;100.00;98138.28;5003212;28;20209;-69
2021/09/04 03:15:12;;;;;;;8.77;7.97;;;;;;;9.17;100.00;98141.84;5005963;28;20229;-69
2021/09/04 03:17:40;;;;;;;8.23;7.63;;;;;;;9.17;100.00;98139.19;4999041;28;20219;-68
2021/09/04 03:20:10;;;;;;;8.27;7.67;;;;;;;9.13;100.00;98137.84;5008980;28;20219;-69
2021/09/04 03:22:38;;;;;;;9.00;7.70;;;;;;;9.13;100.00;98143.13;4995354;28;20197;-69
2021/09/04 03:25:09;;;;;;;8.97;7.97;;;;;;;9.09;100.00;98142.63;5001431;28;20216;-69
2021/09/04 03:27:38;;;;;;;8.43;7.83;;;;;;;9.06;100.00;98144.72;5000044;28;20630;-69
2021/09/04 03:30:07;;;;;;;8.60;7.83;;;;;;;8.98;100.00;98151.59;5008632;28;20205;-69
2021/09/04 03:32:35;;;;;;;8.10;7.37;;;;;;;9.02;100.00;98146.81;5001666;28;20205;-69
2021/09/04 03:35:04;;;;;;;7.73;7.13;;;;;;;8.97;100.00;98139.34;5006803;28;20776;-68
2021/09/04 03:37:33;;;;;;;8.90;8.10;;;;;;;9.00;100.00;98140.03;4998245;28;20242;-68
2021/09/04 03:40:01;;;;;;;8.27;7.57;;;;;;;8.96;100.00;98139.50;5000003;28;20255;-69
2021/09/04 03:42:30;;;;;;;8.57;7.77;;;;;;;8.89;100.00;98136.59;4997478;28;20507;-69
2021/09/04 03:44:58;;;;;;;8.07;7.40;;;;;;;8.82;100.00;98140.84;4998890;28;20676;-69
2021/09/04 03:47:27;;;;;;;8.27;7.60;;;;;;;8.83;100.00;98137.22;5003474;28;20236;-68
2021/09/04 03:49:55;;;;;;;8.90;8.20;;;;;;;8.77;100.00;98141.31;5002370;28;20698;-68
2021/09/04 03:52:23;;;;;;;8.50;7.83;;;;;;;8.71;100.00;98143.69;5000148;28;20614;-69
2021/09/04 03:54:51;;;;;;;8.87;7.50;;;;;;;8.72;100.00;98145.34;5002565;28;20232;-68
2021/09/04 03:57:19;;;;;;;8.13;7.53;;;;;;;8.65;100.00;98140.66;5010637;28;20236;-69
2021/09/04 03:59:49;;;;;;;8.37;7.77;;;;;;;8.62;100.00;98135.69;5005649;28;20288;-68
2021/09/04 04:02:17;;;;;;;7.87;7.27;;;;;;;8.59;100.00;98143.06;5001280;28;20221;-69
2021/09/04 04:04:45;;;;;;;7.97;7.37;;;;;;;8.53;100.00;98137.41;4999173;28;20307;-69
2021/09/04 04:07:13;;;;;;;9.40;7.27;;;;;;;8.52;100.00;98140.16;5005620;28;20692;-69
2021/09/04 04:09:41;;;;;;;7.97;7.37;;;;;;;8.51;100.00;98138.50;5005614;28;20205;-66
2021/09/04 04:12:10;;;;;;;8.00;7.37;;;;;;;8.50;100.00;98135.06;4998047;28;20216;-69
2021/09/04 04:14:38;;;;;;;7.23;6.60;;;;;;;8.52;100.00;98145.44;5002237;28;20215;-69
2021/09/04 04:17:08;;;;;;;8.67;7.80;;;;;;;8.45;100.00;98141.72;5000864;28;20240;-68
2021/09/04 04:19:36;;;;;;;7.10;6.57;;;;;;;8.48;100.00;98144.06;4998542;28;20209;-69
2021/09/04 04:22:04;;;;;;;8.10;7.30;;;;;;;8.48;100.00;98142.25;5009759;28;20204;-68
2021/09/04 04:24:32;;;;;;;7.50;7.00;;;;;;;8.51;100.00;98141.16;4999649;28;20209;-69
2021/09/04 04:27:01;;;;;;;7.73;7.13;;;;;;;8.45;100.00;98133.78;5003198;28;20933;-69
2021/09/04 04:29:29;;;;;;;7.40;6.80;;;;;;;8.39;100.00;98140.50;5002589;28;20599;-68
2021/09/04 04:31:57;;;;;;;7.03;6.53;;;;;;;8.37;100.00;98137.19;5002055;28;20205;-69
2021/09/04 04:34:27;;;;;;;7.63;7.03;;;;;;;8.29;100.00;98140.53;4998598;28;20645;-68
2021/09/04 04:36:55;;;;;;;7.63;7.03;;;;;;;8.26;100.00;98146.13;4997921;28;20599;-69
2021/09/04 04:39:23;;;;;;;7.83;7.23;;;;;;;8.30;100.00;98138.72;4997592;28;20501;-68
2021/09/04 04:41:51;;;;;;;8.67;7.83;;;;;;;8.27;100.00;98139.84;5000982;28;20583;-67
2021/09/04 04:44:19;;;;;;;7.40;6.80;;;;;;;8.26;100.00;98149.56;5005090;28;20569;-67
2021/09/04 04:46:47;;;;;;;7.63;7.13;;;;;;;8.29;100.00;98152.91;4997115;28;20233;-66
2021/09/04 04:49:15;;;;;;;7.67;6.97;;;;;;;8.25;100.00;98152.38;5005992;28;20739;-66
2021/09/04 04:51:45;;;;;;;8.13;7.07;;;;;;;8.26;100.00;98152.22;4996942;28;20228;-67
2021/09/04 04:54:13;;;;;;;8.20;7.40;;;;;;;8.28;100.00;98154.72;5002255;28;20637;-67
2021/09/04 04:56:41;;;;;;;8.17;7.57;;;;;;;8.33;100.00;98159.56;4996988;28;20233;-66
2021/09/04 04:59:09;;;;;;;8.20;7.60;;;;;;;8.33;100.00;98156.91;4997595;28;20573;-67
2021/09/04 05:01:37;;;;;;;7.20;6.60;;;;;;;8.32;100.00;98150.81;5000037;28;20761;-66
2021/09/04 05:04:06;;;;;;;8.50;7.90;;;;;;;8.37;100.00;98151.19;4999116;28;20221;-66
2021/09/04 05:06:34;;;;;;;7.67;6.80;;;;;;;8.47;100.00;98152.97;4999342;28;20287;-66
2021/09/04 05:09:04;;;;;;;7.33;6.83;;;;;;;8.53;100.00;98153.25;5006967;28;20247;-66
2021/09/04 05:11:32;;;;;;;7.23;6.63;;;;;;;8.63;100.00;98147.91;5002534;28;20215;-67
2021/09/04 05:14:00;;;;;;;7.60;6.93;;;;;;;8.53;100.00;98153.25;5007769;28;20208;-66
2021/09/04 05:16:29;;;;;;;8.20;7.60;;;;;;;8.56;100.00;98151.28;5001595;28;20252;-64
2021/09/04 05:18:58;;;;;;;7.33;6.83;;;;;;;8.62;100.00;98153.34;5009731;28;20343;-67
2021/09/04 05:21:26;;;;;;;7.57;7.03;;;;;;;8.63;100.00;98153.19;5001776;28;20637;-67
2021/09/04 05:23:55;;;;;;;7.10;6.60;;;;;;;8.65;100.00;98156.53;5003999;28;20213;-67
2021/09/04 05:26:24;;;;;;;8.33;7.50;;;;;;;8.73;100.00;98157.59;5010320;28;20228;-67
2021/09/04 05:28:52;;;;;;;8.00;7.40;;;;;;;8.85;100.00;98158.22;5004810;28;20236;-66
2021/09/04 05:31:20;;;;;;;8.13;7.53;;;;;;;8.87;100.00;98159.72;5009377;28;20212;-66
2021/09/04 05:33:48;;;;;;;7.77;7.03;;;;;;;8.96;100.00;98165.94;5001813;28;20233;-67
2021/09/04 05:36:17;;;;;;;8.43;7.77;;;;;;;8.96;100.00;98164.13;5004398;28;20248;-68
2021/09/04 05:38:45;;;;;;;7.57;6.87;;;;;;;8.99;100.00;98162.97;5003781;28;20712;-66
2021/09/04 05:41:13;;;;;;;7.93;7.23;;;;;;;9.13;100.00;98156.34;5002874;28;22689;-67
2021/09/04 05:43:42;;;;;;;8.20;7.50;;;;;;;9.17;100.00;98173.56;5002877;28;20301;-66
2021/09/04 05:46:10;;;;;;;7.33;6.63;;;;;;;9.20;100.00;98162.69;5004723;28;20640;-70
2021/09/04 05:48:39;;;;;;;8.23;7.53;;;;;;;9.39;100.00;98164.34;4996772;28;20307;-67
2021/09/04 05:51:07;;;;;;;8.20;7.50;;;;;;;9.42;100.00;98163.22;5001824;28;20606;-71
2021/09/04 05:53:36;;;;;;;8.90;8.20;;;;;;;9.49;100.00;98169.56;5007506;28;20208;-69
2021/09/04 05:56:05;;;;;;;8.07;7.47;;;;;;;9.58;100.00;98162.53;5006578;28;20299;-70
2021/09/04 05:58:33;;;;;;;8.33;7.73;;;;;;;9.67;100.00;98166.06;5007148;28;20531;-71
2021/09/04 06:01:02;;;;;;;8.90;8.10;;;;;;;9.74;100.00;98169.75;5007268;28;20723;-69
2021/09/04 06:03:30;;;;;;;9.10;7.47;;;;;;;9.80;100.00;98160.34;5003613;28;20205;-71
2021/09/04 06:06:00;;;;;;;8.07;7.37;;;;;;;9.95;100.00;98155.31;5011680;28;20327;-70
2021/09/04 06:08:28;;;;;;;8.37;7.67;;;;;;;10.02;100.00;98156.34;5004575;28;20251;-69
2021/09/04 06:10:56;;;;;;;9.37;8.57;;;;;;;10.15;100.00;98158.59;5003156;28;20193;-70
2021/09/04 06:13:24;;;;;;;8.07;7.47;;;;;;;10.21;100.00;98159.78;5000092;28;20213;-70
2021/09/04 06:15:52;;;;;;;9.37;8.57;;;;;;;10.34;100.00;98162.81;5003914;28;20228;-71
2021/09/04 06:18:23;;;;;;;9.00;8.03;;;;;;;10.47;100.00;98157.13;5007045;28;20201;-69
2021/09/04 06:20:51;;;;;;;9.17;8.47;;;;;;;10.57;100.00;98165.75;5009931;28;20239;-69
2021/09/04 06:23:19;;;;;;;9.47;8.53;;;;;;;10.74;100.00;98163.19;5004643;28;20260;-70
2021/09/04 06:25:47;;;;;;;9.50;8.60;;;;;;;10.93;100.00;98166.53;5000889;28;20232;-71
2021/09/04 06:28:15;;;;;;;9.97;8.70;;;;;;;10.98;100.00;98162.41;5012450;28;20239;-71
2021/09/04 06:30:43;;;;;;;8.43;7.73;;;;;;;11.22;100.00;98175.88;5011063;28;20208;-71
2021/09/04 06:33:11;;;;;;;8.37;7.70;;;;;;;11.32;100.00;98176.56;5005297;28;20217;-70
2021/09/04 06:35:41;;;;;;;9.23;8.30;;;;;;;11.38;100.00;98175.91;5008748;28;20538;-70
2021/09/04 06:38:09;;;;;;;8.90;8.20;;;;;;;11.42;100.00;98168.44;5006540;28;20204;-70
2021/09/04 06:40:37;;;;;;;8.90;8.20;;;;;;;11.56;100.00;98170.44;4999001;28;20301;-70
2021/09/04 06:43:05;;;;;;;8.23;7.63;;;;;;;11.69;100.00;98175.22;5001054;28;20243;-68
2021/09/04 06:45:33;;;;;;;8.57;7.83;;;;;;;11.71;100.00;98175.09;4996693;28;20209;-69
2021/09/04 06:48:01;;;;;;;9.77;8.87;;;;;;;11.86;100.00;98168.09;4998142;28;20209;-70
2021/09/04 06:50:30;;;;;;;8.93;8.17;;;;;;;12.00;100.00;98173.72;4995879;28;20229;-69
2021/09/04 06:53:01;;;;;;;9.23;8.33;;;;;;;12.07;100.00;98174.75;5004170;28;20201;-70
2021/09/04 06:55:29;;;;;;;8.80;8.03;;;;;;;12.16;100.00;98167.59;4987289;28;20724;-69
2021/09/04 06:57:57;;;;;;;8.57;7.77;;;;;;;12.34;100.00;98178.00;4998428;28;20569;-70
2021/09/04 07:00:25;;;;;;;8.37;7.77;;;;;;;12.49;100.00;98167.47;4996997;28;20616;-71
2021/09/04 07:02:54;;;;;;;8.47;7.70;;;;;;;12.66;100.00;98173.53;4999342;28;20271;-71
2021/09/04 07:05:23;;;;;;;8.43;7.70;;;;;;;12.70;100.00;98172.22;5002670;28;20243;-70
2021/09/04 07:07:51;;;;;;;8.47;7.83;;;;;;;12.97;100.00;98166.59;4997019;28;20710;-70
2021/09/04 07:10:21;;;;;;;8.80;7.33;;;;;;;13.14;100.00;98170.78;5002154;28;20755;-70
2021/09/04 07:12:49;;;;;;;8.97;8.33;;;;;;;13.30;100.00;98174.38;4997450;28;20201;-71
2021/09/04 07:15:17;;;;;;;7.37;6.87;;;;;;;13.37;100.00;98174.47;4994493;28;20215;-70
2021/09/04 07:17:45;;;;;;;9.97;7.20;;;;;;;13.59;100.00;98175.50;4999094;28;20205;-71
2021/09/04 07:20:13;;;;;;;8.17;7.57;;;;;;;13.68;100.00;98176.25;4997446;28;20216;-70
2021/09/04 07:22:42;;;;;;;7.57;6.97;;;;;;;13.82;100.00;98167.47;4994387;28;20202;-70
2021/09/04 07:25:10;;;;;;;7.70;7.00;;;;;;;13.88;100.00;98179.25;5005437;28;20204;-71
2021/09/04 07:27:40;;;;;;;8.10;7.50;;;;;;;14.01;100.00;98179.44;5003151;28;20239;-69
2021/09/04 07:30:09;;;;;;;7.90;6.90;;;;;;;14.23;100.00;98178.75;5003822;28;20476;-70
2021/09/04 07:32:37;;;;;;;8.60;7.90;;;;;;;14.35;100.00;98179.09;4997445;28;20209;-70
2021/09/04 07:35:06;;;;;;;7.73;7.03;;;;;;;14.42;100.00;98175.53;5000174;28;20664;-71
2021/09/04 07:37:34;;;;;;;7.00;6.47;;;;;;;14.55;100.00;98177.56;4997511;28;20604;-70
2021/09/04 07:40:03;;;;;;;7.53;6.83;;;;;;;14.65;100.00;98181.75;4996951;28;20209;-71
2021/09/04 07:42:32;;;;;;;8.93;7.90;;;;;;;14.87;100.00;98186.19;4991696;28;20373;-71
2021/09/04 07:45:01;;;;;;;7.17;6.67;;;;;;;15.03;100.00;98177.13;5000088;28;20209;-71
2021/09/04 07:47:30;;;;;;;8.43;7.73;;;;;;;15.16;100.00;98184.47;4994224;28;20229;-71
2021/09/04 07:49:58;;;;;;;10.30;8.47;;;;;;;15.43;100.00;98183.91;5000397;28;20580;-70
2021/09/04 07:52:26;;;;;;;8.40;7.57;;;;;;;15.45;100.00;98185.34;4996932;28;20583;-71
2021/09/04 07:54:54;;;;;;;8.93;7.47;;;;;;;15.47;100.00;98191.34;4997603;28;20631;-71
2021/09/04 07:57:22;;;;;;;13.67;8.40;;;;;;;15.67;100.00;98188.03;4995685;28;20233;-71
2021/09/04 07:59:52;;;;;;;9.87;8.30;;;;;;;15.76;100.00;98180.72;4997317;28;20220;-69
2021/09/04 08:02:22;;;;;;;10.47;8.03;;;;;;;15.85;100.00;98192.06;4995684;28;20308;-71
2021/09/04 08:04:50;;;;;;;9.33;8.57;;;;;;;16.03;100.00;98180.94;4995594;28;20718;-70
2021/09/04 08:07:18;;;;;;;9.23;8.40;;;;;;;16.05;100.00;98186.91;4997976;28;20244;-71
2021/09/04 08:09:46;;;;;;;9.03;8.20;;;;;;;16.38;100.00;98178.28;5001095;28;20471;-69
2021/09/04 08:12:14;;;;;;;7.93;6.97;;;;;;;16.43;100.00;98181.19;4998824;28;20220;-70
2021/09/04 08:14:42;;;;;;;11.23;7.80;;;;;;;16.56;100.00;98180.44;4998663;28;20212;-69
2021/09/04 08:17:10;;;;;;;7.80;7.10;;;;;;;16.70;100.00;98175.97;5002497;28;20239;-70
2021/09/04 08:19:40;;;;;;;7.27;6.67;;;;;;;16.78;100.00;98183.81;4998996;28;20220;-70
2021/09/04 08:22:08;;;;;;;7.77;7.07;;;;;;;16.87;100.00;98178.31;5000299;28;20604;-69
2021/09/04 08:24:36;;;;;;;7.97;7.27;;;;;;;17.09;100.00;98180.88;4999119;28;20209;-70
2021/09/04 08:27:04;;;;;;;7.63;6.93;;;;;;;17.25;100.00;98179.69;5007010;28;20229;-69
2021/09/04 08:29:32;;;;;;;7.13;6.53;;;;;;;17.53;100.00;98182.19;5000225;28;20221;-70
2021/09/04 08:32:00;;;;;;;7.20;6.57;;;;;;;17.59;100.00;98180.56;5004898;28;20652;-70
2021/09/04 08:34:28;;;;;;;9.70;7.77;;;;;;;17.86;100.00;98177.91;5002824;28;20205;-69
2021/09/04 08:36:58;;;;;;;10.43;7.30;;;;;;;18.03;100.00;98179.16;5007066;28;20227;-70
2021/09/04 08:39:26;;;;;;;7.43;6.73;;;;;;;18.04;100.00;98172.75;5005154;28;20305;-70
2021/09/04 08:41:54;;;;;;;7.13;6.60;;;;;;;18.19;100.00;98180.56;5002750;28;20219;-70
2021/09/04 08:44:23;;;;;;;6.90;6.33;;;;;;;18.24;100.00;98179.97;5008762;28;20326;-70
2021/09/04 08:46:51;;;;;;;7.33;6.63;;;;;;;18.27;100.00;98176.00;5013804;28;20228;-70
2021/09/04 08:49:19;;;;;;;8.50;6.43;;;;;;;18.67;100.00;98173.22;5004482;28;20565;-70
2021/09/04 08:51:48;;;;;;;7.40;6.70;;;;;;;18.68;100.00;98182.91;5007069;28;20561;-69
2021/09/04 08:54:17;;;;;;;6.67;6.27;;;;;;;18.65;100.00;98172.59;5006738;28;20226;-70
2021/09/04 08:56:45;;;;;;;6.93;6.43;;;;;;;18.71;100.00;98177.13;5009089;28;20247;-69
2021/09/04 08:59:13;;;;;;;7.20;6.57;;;;;;;18.96;100.00;98179.09;5005543;28;20221;-71
2021/09/04 09:01:44;;;;;;;6.47;5.97;;;;;;;19.07;100.00;98183.00;5006757;28;20207;-71
2021/09/04 09:04:16;;;;;;;6.57;5.90;;;;;;;19.14;100.00;98174.91;5006400;28;20477;-70
2021/09/04 09:06:45;;;;;;;6.43;5.97;;;;;;;19.18;100.00;98179.63;5004537;28;20229;-70
2021/09/04 09:09:19;;;;;;;6.53;6.03;;;;;;;19.30;100.00;98174.41;5010255;28;20208;-70
2021/09/04 09:11:48;;;;;;;6.80;6.20;;;;;;;19.44;100.00;98179.69;5003926;28;20232;-70
2021/09/04 09:14:17;;;;;;;5.90;5.50;;;;;;;19.63;100.00;98177.88;5009751;28;20208;-70
2021/09/04 09:16:50;;;;;;;6.07;5.67;;;;;;;19.80;100.00;98181.69;5005749;28;20230;-70
2021/09/04 09:19:21;;;;;;;6.23;5.73;;;;;;;19.87;100.00;98181.63;5006039;28;20723;-71
2021/09/04 09:21:49;;;;;;;6.27;5.77;;;;;;;20.10;100.00;98180.22;5000186;28;20736;-70
2021/09/04 09:24:21;;;;;;;5.90;5.50;;;;;;;20.28;100.00;98178.63;5007451;28;20668;-70
2021/09/04 09:26:50;;;;;;;5.30;4.90;;;;;;;20.32;100.00;98174.44;5004147;28;20225;-70
2021/09/04 09:29:20;;;;;;;6.33;5.83;;;;;;;20.34;100.00;98169.66;5007777;28;20227;-70
2021/09/04 09:31:49;;;;;;;5.87;5.37;;;;;;;20.44;100.00;98164.56;5010505;28;20678;-70
2021/09/04 09:34:17;;;;;;;5.80;5.40;;;;;;;20.59;100.00;98176.81;5000355;28;20213;-71
2021/09/04 09:36:52;;;;;;;5.70;5.30;;;;;;;20.50;100.00;98160.97;5006465;28;20713;-71
2021/09/04 09:39:25;;;;;;;6.57;5.80;;;;;;;20.66;100.00;98164.94;4990417;28;20205;-69
2021/09/04 09:41:54;;;;;;;6.00;5.50;;;;;;;20.91;100.00;98155.13;4988031;28;20212;-70
2021/09/04 09:44:24;;;;;;;6.63;6.00;;;;;;;20.89;100.00;98160.75;4983857;28;20209;-69
2021/09/04 09:46:54;;;;;;;7.07;5.77;;;;;;;21.04;100.00;98163.06;4998956;28;20229;-69
2021/09/04 09:49:29;;;;;;;6.00;5.60;;;;;;;21.15;100.00;98164.13;5012139;28;20205;-69
2021/09/04 09:52:01;;;;;;;6.17;5.67;;;;;;;21.16;100.00;98152.28;5009878;28;20364;-70
2021/09/04 09:54:32;;;;;;;5.90;5.50;;;;;;;21.32;100.00;98150.81;4999963;28;20217;-70
2021/09/04 09:57:01;;;;;;;5.93;5.53;;;;;;;21.34;100.00;98143.34;5008476;28;20331;-70
2021/09/04 09:59:30;;;;;;;6.00;5.60;;;;;;;21.34;100.00;98147.91;5001016;28;20208;-70
2021/09/04 10:01:59;;;;;;;5.87;5.47;;;;;;;21.60;100.00;98148.56;5003651;28;21101;-70
2021/09/04 10:04:29;;;;;;;5.40;4.90;;;;;;;21.63;100.00;98153.50;5002873;28;20212;-69
2021/09/04 10:06:57;;;;;;;5.87;5.33;;;;;;;21.62;100.00;98152.66;5001681;28;20304;-72
2021/09/04 10:09:26;;;;;;;6.17;5.70;;;;;;;21.71;100.00;98152.34;5011615;28;20205;-71
2021/09/04 10:11:56;;;;;;;6.33;5.73;;;;;;;21.86;99.35;98152.72;5004222;28;20239;-71
2021/09/04 10:14:26;;;;;;;5.83;5.37;;;;;;;21.82;98.87;98148.84;5003229;28;20235;-70
2021/09/04 10:16:57;;;;;;;6.00;5.47;;;;;;;21.95;91.45;98139.69;5003323;28;20633;-71
2021/09/04 10:19:28;;;;;;;5.50;5.10;;;;;;;22.07;94.34;98145.09;5008467;28;20208;-70
2021/09/04 10:22:00;;;;;;;5.07;4.67;;;;;;;22.17;90.18;98145.34;4999834;28;20210;-70
2021/09/04 10:24:47;;;;;;;4.87;4.50;;;;;;;22.21;89.45;98156.47;5007928;28;20212;-70
2021/09/04 10:27:29;;;;;;;5.53;5.07;;;;;;;22.17;85.63;98141.81;5002729;28;20762;-71
2021/09/04 10:29:58;;;;;;;5.30;4.87;;;;;;;22.32;88.20;98144.81;5002108;28;20324;-70
2021/09/04 10:32:26;;;;;;;5.70;5.20;;;;;;;22.53;88.33;98138.00;5004528;28;20347;-70
2021/09/04 10:35:07;;;;;;;5.90;5.43;;;;;;;22.96;83.53;98141.28;5000375;28;20209;-69
2021/09/04 10:37:44;;;;;;;5.37;4.90;;;;;;;22.83;84.24;98134.28;5001125;28;20229;-71
2021/09/04 10:40:13;;;;;;;4.97;4.57;;;;;;;22.91;83.73;98132.25;5004081;28;20258;-71
2021/09/04 10:42:44;;;;;;;5.73;5.23;;;;;;;23.53;73.80;98131.50;5007074;28;20197;-69
2021/09/04 10:45:16;;;;;;;5.13;4.73;;;;;;;23.80;73.13;98132.72;5002026;28;20211;-69
2021/09/04 10:47:47;;;;;;;5.53;5.03;;;;;;;24.15;71.26;98120.81;5000391;28;20201;-70
2021/09/04 10:50:17;;;;;;;5.00;4.67;;;;;;;24.36;68.61;98123.78;5002900;28;20204;-70
2021/09/04 10:52:56;;;;;;;5.03;4.73;;;;;;;24.13;66.40;98123.75;4996643;28;20206;-70
2021/09/04 10:55:26;;;;;;;4.93;4.53;;;;;;;24.04;65.86;98122.56;5006009;28;20227;-70
2021/09/04 10:58:03;;;;;;;5.27;4.83;;;;;;;23.73;66.84;98123.97;5001589;28;20205;-70
2021/09/04 11:00:36;;;;;;;5.77;5.07;;;;;;;23.28;66.62;98115.66;4997969;28;20658;-71
2021/09/04 11:03:06;;;;;;;5.10;4.70;;;;;;;22.87;72.07;98125.69;5003365;28;20674;-70
2021/09/04 11:05:52;;;;;;;4.63;4.27;;;;;;;23.03;75.46;98119.53;5001528;28;20215;-70
2021/09/04 11:08:37;;;;;;;5.43;5.03;;;;;;;23.90;68.56;98113.13;5004945;28;20757;-72
2021/09/04 11:11:21;;;;;;;5.13;4.73;;;;;;;24.14;67.04;98120.00;5003265;28;20745;-70
2021/09/04 11:13:51;;;;;;;4.57;4.20;;;;;;;24.53;63.48;98115.59;5002678;28;20877;-71
2021/09/04 11:16:27;;;;;;;4.67;4.37;;;;;;;24.61;60.93;98123.28;5000892;28;20231;-71
2021/09/04 11:18:56;;;;;;;5.27;4.77;;;;;;;24.95;62.07;98109.59;4999949;28;20248;-68
2021/09/04 11:21:24;;;;;;;4.97;4.53;;;;;;;25.00;62.64;98103.41;4997015;28;20213;-72
2021/09/04 11:23:52;;;;;;;4.23;3.83;;;;;;;25.21;61.97;98098.22;4999678;28;20558;-70
2021/09/04 11:26:20;;;;;;;4.70;4.40;;;;;;;25.10;59.29;98097.28;5000740;28;20229;-69
2021/09/04 11:28:56;;;;;;;5.17;4.77;;;;;;;24.84;58.33;98102.44;5000707;28;20218;-70
2021/09/04 11:31:25;;;;;;;4.60;4.30;;;;;;;25.00;59.60;98089.88;5001551;28;20584;-71
2021/09/04 11:33:54;;;;;;;5.07;4.67;;;;;;;25.38;56.02;98089.91;5008576;28;20286;-70
2021/09/04 11:36:32;;;;;;;4.80;4.30;;;;;;;25.34;57.69;98083.38;4997102;28;20233;-70
2021/09/04 11:39:00;;;;;;;4.93;4.53;;;;;;;25.46;59.10;98080.50;5002836;28;20425;-70